sensor_id;sensor_type;location;lat;lon;timestamp;P1;durP1;ratioP1;P2;durP2;ratioP2
33690;SDS011;20026;50.058;18.428;2023-05-16T00:00:38;12.52;;;10.40;;
33690;SDS011;20026;50.058;18.428;2023-05-16T00:03:05;11.85;;;10.45;;
33690;SDS011;20026;50.058;18.428;2023-05-16T00:05:31;16.38;;;10.90;;
33690;SDS011;20026;50.058;18.428;2023-05-16T00:07:58;12.18;;;10.88;;
33690;SDS011;20026;50.058;18.428;2023-05-16T00:10:24;12.70;;;11.40;;
33690;SDS011;20026;50.058;18.428;2023-05-16T00:12:51;11.35;;;10.10;;
33690;SDS011;20026;50.058;18.428;2023-05-16T00:15:19;11.10;;;9.90;;
33690;SDS011;20026;50.058;18.428;2023-05-16T00:17:45;11.70;;;10.50;;
33690;SDS011;20026;50.058;18.428;2023-05-16T00:20:13;13.32;;;10.35;;
33690;SDS011;20026;50.058;18.428;2023-05-16T00:22:42;11.85;;;10.50;;
33690;SDS011;20026;50.058;18.428;2023-05-16T00:25:08;12.35;;;10.10;;
33690;SDS011;20026;50.058;18.428;2023-05-16T00:27:35;13.75;;;10.45;;
33690;SDS011;20026;50.058;18.428;2023-05-16T00:30:02;13.73;;;11.20;;
33690;SDS011;20026;50.058;18.428;2023-05-16T00:32:30;14.13;;;11.80;;
33690;SDS011;20026;50.058;18.428;2023-05-16T00:34:56;15.15;;;11.90;;
33690;SDS011;20026;50.058;18.428;2023-05-16T00:37:22;12.35;;;10.25;;
33690;SDS011;20026;50.058;18.428;2023-05-16T00:39:49;13.68;;;11.45;;
33690;SDS011;20026;50.058;18.428;2023-05-16T00:42:17;16.02;;;11.15;;
33690;SDS011;20026;50.058;18.428;2023-05-16T00:44:44;13.65;;;11.38;;
33690;SDS011;20026;50.058;18.428;2023-05-16T00:47:10;13.48;;;11.05;;
33690;SDS011;20026;50.058;18.428;2023-05-16T00:49:40;12.30;;;10.98;;
33690;SDS011;20026;50.058;18.428;2023-05-16T00:52:07;12.32;;;11.05;;
33690;SDS011;20026;50.058;18.428;2023-05-16T00:54:34;11.90;;;10.65;;
33690;SDS011;20026;50.058;18.428;2023-05-16T00:57:01;13.77;;;11.50;;
33690;SDS011;20026;50.058;18.428;2023-05-16T00:59:28;12.85;;;11.05;;
33690;SDS011;20026;50.058;18.428;2023-05-16T01:01:54;18.67;;;11.80;;
33690;SDS011;20026;50.058;18.428;2023-05-16T01:04:21;12.63;;;10.70;;
33690;SDS011;20026;50.058;18.428;2023-05-16T01:06:47;15.35;;;11.80;;
33690;SDS011;20026;50.058;18.428;2023-05-16T01:09:13;15.13;;;12.05;;
33690;SDS011;20026;50.058;18.428;2023-05-16T01:11:59;12.82;;;11.50;;
33690;SDS011;20026;50.058;18.428;2023-05-16T01:14:33;12.88;;;11.00;;
33690;SDS011;20026;50.058;18.428;2023-05-16T01:22:40;15.00;;;11.73;;
33690;SDS011;20026;50.058;18.428;2023-05-16T01:27:45;14.38;;;12.75;;
33690;SDS011;20026;50.058;18.428;2023-05-16T01:30:13;17.50;;;14.02;;
33690;SDS011;20026;50.058;18.428;2023-05-16T01:32:40;18.17;;;13.18;;
33690;SDS011;20026;50.058;18.428;2023-05-16T01:35:06;15.85;;;13.15;;
33690;SDS011;20026;50.058;18.428;2023-05-16T01:37:35;15.60;;;13.13;;
33690;SDS011;20026;50.058;18.428;2023-05-16T01:40:29;14.43;;;12.93;;
33690;SDS011;20026;50.058;18.428;2023-05-16T01:42:51;15.48;;;13.70;;
33690;SDS011;20026;50.058;18.428;2023-05-16T01:45:25;16.40;;;13.88;;
33690;SDS011;20026;50.058;18.428;2023-05-16T01:47:57;16.13;;;14.30;;
33690;SDS011;20026;50.058;18.428;2023-05-16T01:50:26;17.35;;;14.25;;
33690;SDS011;20026;50.058;18.428;2023-05-16T01:52:58;18.13;;;15.10;;
33690;SDS011;20026;50.058;18.428;2023-05-16T01:55:44;18.95;;;15.60;;
33690;SDS011;20026;50.058;18.428;2023-05-16T01:58:11;20.15;;;15.40;;
33690;SDS011;20026;50.058;18.428;2023-05-16T02:00:39;20.77;;;14.70;;
33690;SDS011;20026;50.058;18.428;2023-05-16T02:03:05;23.13;;;15.15;;
33690;SDS011;20026;50.058;18.428;2023-05-16T02:05:31;21.55;;;14.90;;
33690;SDS011;20026;50.058;18.428;2023-05-16T02:07:58;17.70;;;14.15;;
33690;SDS011;20026;50.058;18.428;2023-05-16T02:10:25;19.40;;;14.75;;
33690;SDS011;20026;50.058;18.428;2023-05-16T02:12:52;23.15;;;14.95;;
33690;SDS011;20026;50.058;18.428;2023-05-16T02:15:19;18.08;;;14.75;;
33690;SDS011;20026;50.058;18.428;2023-05-16T02:17:46;20.45;;;14.68;;
33690;SDS011;20026;50.058;18.428;2023-05-16T02:20:14;16.00;;;13.50;;
33690;SDS011;20026;50.058;18.428;2023-05-16T02:22:41;17.88;;;14.98;;
33690;SDS011;20026;50.058;18.428;2023-05-16T02:25:08;23.45;;;16.00;;
33690;SDS011;20026;50.058;18.428;2023-05-16T02:27:35;20.23;;;15.43;;
33690;SDS011;20026;50.058;18.428;2023-05-16T02:30:01;21.15;;;14.48;;
33690;SDS011;20026;50.058;18.428;2023-05-16T02:32:29;22.10;;;15.93;;
33690;SDS011;20026;50.058;18.428;2023-05-16T02:34:56;17.10;;;14.15;;
33690;SDS011;20026;50.058;18.428;2023-05-16T02:37:22;16.08;;;13.10;;
33690;SDS011;20026;50.058;18.428;2023-05-16T02:39:49;17.45;;;13.55;;
33690;SDS011;20026;50.058;18.428;2023-05-16T02:42:15;18.92;;;14.10;;
33690;SDS011;20026;50.058;18.428;2023-05-16T02:44:41;19.88;;;15.25;;
33690;SDS011;20026;50.058;18.428;2023-05-16T02:47:08;15.85;;;13.40;;
33690;SDS011;20026;50.058;18.428;2023-05-16T02:49:35;16.98;;;13.70;;
33690;SDS011;20026;50.058;18.428;2023-05-16T02:52:01;22.30;;;14.38;;
33690;SDS011;20026;50.058;18.428;2023-05-16T02:54:28;15.82;;;13.98;;
33690;SDS011;20026;50.058;18.428;2023-05-16T02:56:55;18.75;;;14.45;;
33690;SDS011;20026;50.058;18.428;2023-05-16T02:59:21;22.27;;;13.80;;
33690;SDS011;20026;50.058;18.428;2023-05-16T03:01:47;20.63;;;14.25;;
33690;SDS011;20026;50.058;18.428;2023-05-16T03:04:15;22.85;;;14.05;;
33690;SDS011;20026;50.058;18.428;2023-05-16T03:06:42;24.55;;;16.25;;
33690;SDS011;20026;50.058;18.428;2023-05-16T03:09:09;25.38;;;15.40;;
33690;SDS011;20026;50.058;18.428;2023-05-16T03:11:35;25.38;;;16.25;;
33690;SDS011;20026;50.058;18.428;2023-05-16T03:14:02;24.88;;;16.95;;
33690;SDS011;20026;50.058;18.428;2023-05-16T03:16:28;23.65;;;15.32;;
33690;SDS011;20026;50.058;18.428;2023-05-16T03:18:55;22.48;;;15.68;;
33690;SDS011;20026;50.058;18.428;2023-05-16T03:21:21;23.98;;;16.25;;
33690;SDS011;20026;50.058;18.428;2023-05-16T03:23:48;19.98;;;13.93;;
33690;SDS011;20026;50.058;18.428;2023-05-16T03:26:15;20.73;;;15.27;;
33690;SDS011;20026;50.058;18.428;2023-05-16T03:28:41;22.98;;;15.38;;
33690;SDS011;20026;50.058;18.428;2023-05-16T03:31:08;23.20;;;15.50;;
33690;SDS011;20026;50.058;18.428;2023-05-16T03:33:34;23.98;;;15.43;;
33690;SDS011;20026;50.058;18.428;2023-05-16T03:36:01;21.23;;;15.30;;
33690;SDS011;20026;50.058;18.428;2023-05-16T03:38:29;22.13;;;15.77;;
33690;SDS011;20026;50.058;18.428;2023-05-16T03:40:56;23.67;;;17.00;;
33690;SDS011;20026;50.058;18.428;2023-05-16T03:43:23;21.75;;;15.70;;
33690;SDS011;20026;50.058;18.428;2023-05-16T03:45:49;18.02;;;15.88;;
33690;SDS011;20026;50.058;18.428;2023-05-16T03:48:16;24.75;;;15.30;;
33690;SDS011;20026;50.058;18.428;2023-05-16T03:50:42;20.85;;;16.17;;
33690;SDS011;20026;50.058;18.428;2023-05-16T03:53:09;18.95;;;15.95;;
33690;SDS011;20026;50.058;18.428;2023-05-16T03:55:36;22.25;;;16.30;;
33690;SDS011;20026;50.058;18.428;2023-05-16T03:58:02;19.33;;;16.63;;
33690;SDS011;20026;50.058;18.428;2023-05-16T04:00:33;23.17;;;16.40;;
33690;SDS011;20026;50.058;18.428;2023-05-16T04:03:01;20.33;;;17.60;;
33690;SDS011;20026;50.058;18.428;2023-05-16T04:05:29;24.00;;;16.77;;
33690;SDS011;20026;50.058;18.428;2023-05-16T04:07:55;19.63;;;14.65;;
33690;SDS011;20026;50.058;18.428;2023-05-16T04:10:21;21.25;;;16.33;;
33690;SDS011;20026;50.058;18.428;2023-05-16T04:12:48;24.27;;;16.92;;
33690;SDS011;20026;50.058;18.428;2023-05-16T04:15:15;20.40;;;16.02;;
33690;SDS011;20026;50.058;18.428;2023-05-16T04:17:41;25.48;;;17.65;;
33690;SDS011;20026;50.058;18.428;2023-05-16T04:20:08;28.15;;;17.38;;
33690;SDS011;20026;50.058;18.428;2023-05-16T04:22:35;23.13;;;14.82;;
33690;SDS011;20026;50.058;18.428;2023-05-16T04:25:01;17.25;;;13.23;;
33690;SDS011;20026;50.058;18.428;2023-05-16T04:27:28;18.33;;;11.82;;
33690;SDS011;20026;50.058;18.428;2023-05-16T04:29:55;29.40;;;13.20;;
33690;SDS011;20026;50.058;18.428;2023-05-16T04:32:23;20.58;;;11.18;;
33690;SDS011;20026;50.058;18.428;2023-05-16T04:34:50;14.68;;;10.43;;
33690;SDS011;20026;50.058;18.428;2023-05-16T04:37:18;16.05;;;9.73;;
33690;SDS011;20026;50.058;18.428;2023-05-16T04:39:48;15.98;;;10.63;;
33690;SDS011;20026;50.058;18.428;2023-05-16T04:42:15;12.25;;;8.60;;
33690;SDS011;20026;50.058;18.428;2023-05-16T04:44:41;12.63;;;8.27;;
33690;SDS011;20026;50.058;18.428;2023-05-16T04:47:08;10.98;;;7.63;;
33690;SDS011;20026;50.058;18.428;2023-05-16T04:49:34;14.63;;;8.02;;
33690;SDS011;20026;50.058;18.428;2023-05-16T04:52:00;10.73;;;8.20;;
33690;SDS011;20026;50.058;18.428;2023-05-16T04:54:27;12.10;;;7.68;;
33690;SDS011;20026;50.058;18.428;2023-05-16T04:56:53;11.68;;;7.28;;
33690;SDS011;20026;50.058;18.428;2023-05-16T04:59:19;11.10;;;7.15;;
33690;SDS011;20026;50.058;18.428;2023-05-16T05:01:46;11.52;;;6.57;;
33690;SDS011;20026;50.058;18.428;2023-05-16T05:04:12;11.32;;;7.80;;
33690;SDS011;20026;50.058;18.428;2023-05-16T05:06:39;16.92;;;10.10;;
33690;SDS011;20026;50.058;18.428;2023-05-16T05:09:05;16.10;;;8.98;;
33690;SDS011;20026;50.058;18.428;2023-05-16T05:11:32;16.35;;;10.10;;
33690;SDS011;20026;50.058;18.428;2023-05-16T05:13:58;14.88;;;9.20;;
33690;SDS011;20026;50.058;18.428;2023-05-16T05:16:29;12.35;;;7.72;;
33690;SDS011;20026;50.058;18.428;2023-05-16T05:18:57;17.90;;;7.38;;
33690;SDS011;20026;50.058;18.428;2023-05-16T05:21:23;7.43;;;6.20;;
33690;SDS011;20026;50.058;18.428;2023-05-16T05:23:49;14.35;;;8.02;;
33690;SDS011;20026;50.058;18.428;2023-05-16T05:26:16;12.52;;;6.00;;
33690;SDS011;20026;50.058;18.428;2023-05-16T05:31:46;11.23;;;6.13;;
33690;SDS011;20026;50.058;18.428;2023-05-16T05:34:13;8.73;;;5.65;;
33690;SDS011;20026;50.058;18.428;2023-05-16T05:36:40;12.13;;;7.60;;
33690;SDS011;20026;50.058;18.428;2023-05-16T05:39:06;10.45;;;7.72;;
33690;SDS011;20026;50.058;18.428;2023-05-16T05:41:32;12.23;;;7.85;;
33690;SDS011;20026;50.058;18.428;2023-05-16T05:43:59;17.33;;;10.50;;
33690;SDS011;20026;50.058;18.428;2023-05-16T05:46:26;11.95;;;7.43;;
33690;SDS011;20026;50.058;18.428;2023-05-16T05:48:56;9.32;;;6.80;;
33690;SDS011;20026;50.058;18.428;2023-05-16T05:51:23;9.98;;;7.00;;
33690;SDS011;20026;50.058;18.428;2023-05-16T05:53:51;8.57;;;7.25;;
33690;SDS011;20026;50.058;18.428;2023-05-16T05:56:18;20.50;;;10.90;;
33690;SDS011;20026;50.058;18.428;2023-05-16T05:58:45;15.13;;;9.63;;
33690;SDS011;20026;50.058;18.428;2023-05-16T06:01:11;12.88;;;7.75;;
33690;SDS011;20026;50.058;18.428;2023-05-16T06:03:38;10.10;;;7.80;;
33690;SDS011;20026;50.058;18.428;2023-05-16T06:06:06;11.65;;;7.95;;
33690;SDS011;20026;50.058;18.428;2023-05-16T06:08:34;15.60;;;8.15;;
33690;SDS011;20026;50.058;18.428;2023-05-16T06:11:01;8.18;;;6.45;;
33690;SDS011;20026;50.058;18.428;2023-05-16T06:13:27;14.73;;;8.05;;
33690;SDS011;20026;50.058;18.428;2023-05-16T06:15:54;10.65;;;6.10;;
33690;SDS011;20026;50.058;18.428;2023-05-16T06:18:21;13.65;;;7.03;;
33690;SDS011;20026;50.058;18.428;2023-05-16T06:20:47;9.52;;;6.97;;
33690;SDS011;20026;50.058;18.428;2023-05-16T06:23:14;9.43;;;6.72;;
33690;SDS011;20026;50.058;18.428;2023-05-16T06:25:41;13.85;;;8.30;;
33690;SDS011;20026;50.058;18.428;2023-05-16T06:28:08;17.92;;;8.73;;
33690;SDS011;20026;50.058;18.428;2023-05-16T06:30:35;16.10;;;9.98;;
33690;SDS011;20026;50.058;18.428;2023-05-16T06:33:01;13.63;;;7.57;;
33690;SDS011;20026;50.058;18.428;2023-05-16T06:35:28;9.63;;;7.50;;
33690;SDS011;20026;50.058;18.428;2023-05-16T06:37:55;9.98;;;6.00;;
33690;SDS011;20026;50.058;18.428;2023-05-16T06:40:22;11.93;;;7.03;;
33690;SDS011;20026;50.058;18.428;2023-05-16T06:42:49;7.75;;;5.13;;
33690;SDS011;20026;50.058;18.428;2023-05-16T06:45:16;6.97;;;5.18;;
33690;SDS011;20026;50.058;18.428;2023-05-16T12:01:39;5.15;;;4.50;;
33690;SDS011;20026;50.058;18.428;2023-05-16T12:04:07;7.88;;;5.22;;
33690;SDS011;20026;50.058;18.428;2023-05-16T12:06:39;10.18;;;5.38;;
33690;SDS011;20026;50.058;18.428;2023-05-16T12:09:27;7.07;;;5.68;;
33690;SDS011;20026;50.058;18.428;2023-05-16T12:11:54;5.47;;;4.72;;
33690;SDS011;20026;50.058;18.428;2023-05-16T12:17:14;7.75;;;4.80;;
33690;SDS011;20026;50.058;18.428;2023-05-16T12:19:41;6.40;;;4.82;;
33690;SDS011;20026;50.058;18.428;2023-05-16T12:22:16;7.72;;;4.78;;
33690;SDS011;20026;50.058;18.428;2023-05-16T12:24:43;9.95;;;5.05;;
33690;SDS011;20026;50.058;18.428;2023-05-16T12:27:10;7.63;;;5.28;;
33690;SDS011;20026;50.058;18.428;2023-05-16T12:29:37;10.65;;;4.95;;
33690;SDS011;20026;50.058;18.428;2023-05-16T12:32:03;9.30;;;5.18;;
33690;SDS011;20026;50.058;18.428;2023-05-16T12:34:33;6.95;;;5.32;;
33690;SDS011;20026;50.058;18.428;2023-05-16T12:36:59;9.45;;;5.25;;
33690;SDS011;20026;50.058;18.428;2023-05-16T12:39:26;7.88;;;5.68;;
33690;SDS011;20026;50.058;18.428;2023-05-16T12:41:52;8.60;;;5.50;;
33690;SDS011;20026;50.058;18.428;2023-05-16T12:44:19;8.30;;;5.20;;
33690;SDS011;20026;50.058;18.428;2023-05-16T12:46:50;9.10;;;5.00;;
33690;SDS011;20026;50.058;18.428;2023-05-16T12:49:19;7.47;;;5.20;;
33690;SDS011;20026;50.058;18.428;2023-05-16T12:51:49;11.63;;;5.30;;
33690;SDS011;20026;50.058;18.428;2023-05-16T12:54:16;7.22;;;5.00;;
33690;SDS011;20026;50.058;18.428;2023-05-16T12:56:43;10.02;;;5.00;;
33690;SDS011;20026;50.058;18.428;2023-05-16T12:59:09;6.05;;;5.10;;
33690;SDS011;20026;50.058;18.428;2023-05-16T13:01:39;8.05;;;5.38;;
33690;SDS011;20026;50.058;18.428;2023-05-16T13:04:06;9.73;;;6.05;;
33690;SDS011;20026;50.058;18.428;2023-05-16T13:06:33;10.35;;;6.07;;
33690;SDS011;20026;50.058;18.428;2023-05-16T13:09:02;10.40;;;5.60;;
33690;SDS011;20026;50.058;18.428;2023-05-16T13:11:29;9.38;;;5.28;;
33690;SDS011;20026;50.058;18.428;2023-05-16T13:13:55;15.55;;;7.07;;
33690;SDS011;20026;50.058;18.428;2023-05-16T13:16:21;19.38;;;10.82;;
33690;SDS011;20026;50.058;18.428;2023-05-16T13:18:48;15.13;;;10.40;;
33690;SDS011;20026;50.058;18.428;2023-05-16T13:21:15;13.73;;;8.68;;
33690;SDS011;20026;50.058;18.428;2023-05-16T13:23:41;13.60;;;8.23;;
33690;SDS011;20026;50.058;18.428;2023-05-16T13:26:07;9.80;;;7.45;;
33690;SDS011;20026;50.058;18.428;2023-05-16T13:28:34;11.05;;;7.85;;
33690;SDS011;20026;50.058;18.428;2023-05-16T13:31:01;14.60;;;8.93;;
33690;SDS011;20026;50.058;18.428;2023-05-16T13:33:29;14.73;;;10.77;;
33690;SDS011;20026;50.058;18.428;2023-05-16T13:35:55;9.63;;;8.05;;
33690;SDS011;20026;50.058;18.428;2023-05-16T13:38:21;8.93;;;7.50;;
33690;SDS011;20026;50.058;18.428;2023-05-16T13:40:48;11.18;;;8.40;;
33690;SDS011;20026;50.058;18.428;2023-05-16T13:43:15;9.75;;;8.75;;
33690;SDS011;20026;50.058;18.428;2023-05-16T13:45:41;25.42;;;22.88;;
33690;SDS011;20026;50.058;18.428;2023-05-16T13:48:08;138.38;;;99.10;;
33690;SDS011;20026;50.058;18.428;2023-05-16T13:50:35;244.60;;;187.70;;
33690;SDS011;20026;50.058;18.428;2023-05-16T13:53:01;109.07;;;94.20;;
33690;SDS011;20026;50.058;18.428;2023-05-16T13:55:46;65.82;;;58.72;;
33690;SDS011;20026;50.058;18.428;2023-05-16T13:58:12;48.83;;;39.65;;
33690;SDS011;20026;50.058;18.428;2023-05-16T14:00:38;24.75;;;21.85;;
33690;SDS011;20026;50.058;18.428;2023-05-16T14:03:05;43.25;;;32.20;;
33690;SDS011;20026;50.058;18.428;2023-05-16T14:05:31;89.53;;;51.58;;
33690;SDS011;20026;50.058;18.428;2023-05-16T14:07:57;200.27;;;96.38;;
33690;SDS011;20026;50.058;18.428;2023-05-16T14:10:23;47.95;;;32.08;;
33690;SDS011;20026;50.058;18.428;2023-05-16T14:12:50;30.52;;;23.55;;
33690;SDS011;20026;50.058;18.428;2023-05-16T14:15:17;26.38;;;22.05;;
33690;SDS011;20026;50.058;18.428;2023-05-16T14:17:44;29.95;;;23.92;;
33690;SDS011;20026;50.058;18.428;2023-05-16T14:20:10;31.15;;;28.05;;
33690;SDS011;20026;50.058;18.428;2023-05-16T14:22:38;35.38;;;29.83;;
33690;SDS011;20026;50.058;18.428;2023-05-16T14:25:04;78.22;;;51.33;;
33690;SDS011;20026;50.058;18.428;2023-05-16T14:27:31;72.38;;;50.15;;
33690;SDS011;20026;50.058;18.428;2023-05-16T14:29:58;60.35;;;44.58;;
33690;SDS011;20026;50.058;18.428;2023-05-16T14:32:25;70.93;;;49.03;;
33690;SDS011;20026;50.058;18.428;2023-05-16T14:34:51;59.80;;;43.95;;
33690;SDS011;20026;50.058;18.428;2023-05-16T14:37:18;45.85;;;38.95;;
33690;SDS011;20026;50.058;18.428;2023-05-16T14:39:45;36.28;;;30.05;;
33690;SDS011;20026;50.058;18.428;2023-05-16T14:42:13;28.20;;;25.23;;
33690;SDS011;20026;50.058;18.428;2023-05-16T14:44:40;26.27;;;21.60;;
33690;SDS011;20026;50.058;18.428;2023-05-16T14:47:06;23.42;;;20.05;;
33690;SDS011;20026;50.058;18.428;2023-05-16T14:49:32;27.52;;;21.17;;
33690;SDS011;20026;50.058;18.428;2023-05-16T14:51:59;22.67;;;20.23;;
33690;SDS011;20026;50.058;18.428;2023-05-16T14:54:26;26.08;;;22.98;;
33690;SDS011;20026;50.058;18.428;2023-05-16T14:56:52;29.67;;;22.75;;
33690;SDS011;20026;50.058;18.428;2023-05-16T14:59:20;22.23;;;19.20;;
33690;SDS011;20026;50.058;18.428;2023-05-16T15:01:47;22.90;;;19.20;;
33690;SDS011;20026;50.058;18.428;2023-05-16T15:04:13;27.50;;;21.48;;
33690;SDS011;20026;50.058;18.428;2023-05-16T15:06:39;28.80;;;21.33;;
33690;SDS011;20026;50.058;18.428;2023-05-16T15:09:06;24.85;;;22.05;;
33690;SDS011;20026;50.058;18.428;2023-05-16T15:11:32;24.02;;;21.42;;
33690;SDS011;20026;50.058;18.428;2023-05-16T15:13:59;29.02;;;25.38;;
33690;SDS011;20026;50.058;18.428;2023-05-16T15:16:26;25.17;;;22.73;;
33690;SDS011;20026;50.058;18.428;2023-05-16T15:18:55;32.85;;;24.38;;
33690;SDS011;20026;50.058;18.428;2023-05-16T15:21:22;25.90;;;22.83;;
33690;SDS011;20026;50.058;18.428;2023-05-16T15:23:48;25.52;;;23.10;;
33690;SDS011;20026;50.058;18.428;2023-05-16T15:26:16;26.38;;;23.13;;
33690;SDS011;20026;50.058;18.428;2023-05-16T15:28:43;30.17;;;24.48;;
33690;SDS011;20026;50.058;18.428;2023-05-16T15:31:09;27.77;;;24.77;;
33690;SDS011;20026;50.058;18.428;2023-05-16T15:33:36;29.10;;;26.00;;
33690;SDS011;20026;50.058;18.428;2023-05-16T15:36:02;29.13;;;26.00;;
33690;SDS011;20026;50.058;18.428;2023-05-16T15:38:28;38.33;;;27.85;;
33690;SDS011;20026;50.058;18.428;2023-05-16T15:40:55;35.80;;;27.08;;
33690;SDS011;20026;50.058;18.428;2023-05-16T15:43:21;30.10;;;26.90;;
33690;SDS011;20026;50.058;18.428;2023-05-16T15:45:48;29.00;;;23.70;;
33690;SDS011;20026;50.058;18.428;2023-05-16T15:48:14;21.55;;;19.20;;
33690;SDS011;20026;50.058;18.428;2023-05-16T15:50:41;25.27;;;21.48;;
33690;SDS011;20026;50.058;18.428;2023-05-16T15:53:07;30.17;;;24.30;;
33690;SDS011;20026;50.058;18.428;2023-05-16T15:55:33;23.23;;;20.83;;
33690;SDS011;20026;50.058;18.428;2023-05-16T15:57:59;31.40;;;27.50;;
33690;SDS011;20026;50.058;18.428;2023-05-16T16:00:27;40.20;;;28.73;;
33690;SDS011;20026;50.058;18.428;2023-05-16T16:02:53;36.88;;;30.48;;
33690;SDS011;20026;50.058;18.428;2023-05-16T16:05:19;43.10;;;31.95;;
33690;SDS011;20026;50.058;18.428;2023-05-16T16:07:49;53.53;;;39.72;;
33690;SDS011;20026;50.058;18.428;2023-05-16T16:10:15;51.78;;;42.30;;
33690;SDS011;20026;50.058;18.428;2023-05-16T16:12:41;39.50;;;34.67;;
33690;SDS011;20026;50.058;18.428;2023-05-16T16:15:08;42.42;;;37.05;;
33690;SDS011;20026;50.058;18.428;2023-05-16T16:17:35;61.03;;;50.65;;
33690;SDS011;20026;50.058;18.428;2023-05-16T16:20:01;65.22;;;53.75;;
33690;SDS011;20026;50.058;18.428;2023-05-16T16:22:27;89.30;;;63.53;;
33690;SDS011;20026;50.058;18.428;2023-05-16T16:24:54;72.68;;;54.42;;
33690;SDS011;20026;50.058;18.428;2023-05-16T16:27:20;76.70;;;54.60;;
33690;SDS011;20026;50.058;18.428;2023-05-16T16:29:47;61.85;;;46.88;;
33690;SDS011;20026;50.058;18.428;2023-05-16T16:32:13;60.92;;;45.78;;
33690;SDS011;20026;50.058;18.428;2023-05-16T16:34:40;47.78;;;39.08;;
33690;SDS011;20026;50.058;18.428;2023-05-16T16:37:07;39.17;;;33.67;;
33690;SDS011;20026;50.058;18.428;2023-05-16T16:39:35;43.25;;;36.80;;
33690;SDS011;20026;50.058;18.428;2023-05-16T16:42:01;47.97;;;40.05;;
33690;SDS011;20026;50.058;18.428;2023-05-16T16:44:31;59.45;;;46.30;;
33690;SDS011;20026;50.058;18.428;2023-05-16T16:46:57;63.13;;;46.88;;
33690;SDS011;20026;50.058;18.428;2023-05-16T16:49:24;69.63;;;51.65;;
33690;SDS011;20026;50.058;18.428;2023-05-16T16:51:55;73.45;;;55.42;;
33690;SDS011;20026;50.058;18.428;2023-05-16T16:54:22;62.08;;;47.53;;
33690;SDS011;20026;50.058;18.428;2023-05-16T16:56:49;66.43;;;48.15;;
33690;SDS011;20026;50.058;18.428;2023-05-16T16:59:16;54.92;;;48.00;;
33690;SDS011;20026;50.058;18.428;2023-05-16T17:01:43;56.90;;;46.72;;
33690;SDS011;20026;50.058;18.428;2023-05-16T17:04:10;51.17;;;43.25;;
33690;SDS011;20026;50.058;18.428;2023-05-16T17:06:36;58.30;;;42.65;;
33690;SDS011;20026;50.058;18.428;2023-05-16T17:09:02;52.70;;;40.92;;
33690;SDS011;20026;50.058;18.428;2023-05-16T17:11:31;56.95;;;39.47;;
33690;SDS011;20026;50.058;18.428;2023-05-16T17:14:00;32.10;;;27.27;;
33690;SDS011;20026;50.058;18.428;2023-05-16T17:16:29;42.63;;;33.38;;
33690;SDS011;20026;50.058;18.428;2023-05-16T17:18:56;37.45;;;28.67;;
33690;SDS011;20026;50.058;18.428;2023-05-16T17:21:23;38.97;;;33.25;;
33690;SDS011;20026;50.058;18.428;2023-05-16T17:23:49;38.10;;;33.03;;
33690;SDS011;20026;50.058;18.428;2023-05-16T17:26:16;32.30;;;27.17;;
33690;SDS011;20026;50.058;18.428;2023-05-16T17:28:43;38.08;;;33.15;;
33690;SDS011;20026;50.058;18.428;2023-05-16T17:31:10;47.50;;;35.83;;
33690;SDS011;20026;50.058;18.428;2023-05-16T17:33:36;48.03;;;37.55;;
33690;SDS011;20026;50.058;18.428;2023-05-16T17:36:02;42.05;;;33.85;;
33690;SDS011;20026;50.058;18.428;2023-05-16T17:38:29;36.05;;;31.58;;
33690;SDS011;20026;50.058;18.428;2023-05-16T17:40:55;41.78;;;34.97;;
33690;SDS011;20026;50.058;18.428;2023-05-16T17:43:25;51.97;;;39.80;;
33690;SDS011;20026;50.058;18.428;2023-05-16T17:45:51;53.35;;;41.42;;
33690;SDS011;20026;50.058;18.428;2023-05-16T17:48:18;50.50;;;41.28;;
33690;SDS011;20026;50.058;18.428;2023-05-16T17:50:44;49.10;;;39.63;;
33690;SDS011;20026;50.058;18.428;2023-05-16T17:53:10;49.17;;;37.40;;
33690;SDS011;20026;50.058;18.428;2023-05-16T17:55:37;48.88;;;39.35;;
33690;SDS011;20026;50.058;18.428;2023-05-16T17:58:03;60.55;;;45.40;;
33690;SDS011;20026;50.058;18.428;2023-05-16T18:00:31;66.28;;;48.38;;
33690;SDS011;20026;50.058;18.428;2023-05-16T18:02:57;64.78;;;47.83;;
33690;SDS011;20026;50.058;18.428;2023-05-16T18:05:24;65.13;;;48.35;;
33690;SDS011;20026;50.058;18.428;2023-05-16T18:07:51;89.18;;;59.72;;
33690;SDS011;20026;50.058;18.428;2023-05-16T18:10:19;83.75;;;59.83;;
33690;SDS011;20026;50.058;18.428;2023-05-16T18:12:46;70.47;;;48.88;;
33690;SDS011;20026;50.058;18.428;2023-05-16T18:15:13;89.35;;;61.20;;
33690;SDS011;20026;50.058;18.428;2023-05-16T18:17:40;97.80;;;67.55;;
33690;SDS011;20026;50.058;18.428;2023-05-16T18:20:06;112.40;;;78.35;;
33690;SDS011;20026;50.058;18.428;2023-05-16T18:22:36;66.85;;;50.47;;
33690;SDS011;20026;50.058;18.428;2023-05-16T18:25:04;67.45;;;49.40;;
33690;SDS011;20026;50.058;18.428;2023-05-16T18:27:31;71.97;;;52.97;;
33690;SDS011;20026;50.058;18.428;2023-05-16T18:29:58;68.40;;;49.15;;
33690;SDS011;20026;50.058;18.428;2023-05-16T18:32:24;72.60;;;51.40;;
33690;SDS011;20026;50.058;18.428;2023-05-16T18:34:50;81.00;;;55.20;;
33690;SDS011;20026;50.058;18.428;2023-05-16T18:37:17;87.88;;;58.05;;
33690;SDS011;20026;50.058;18.428;2023-05-16T18:39:43;168.00;;;110.15;;
33690;SDS011;20026;50.058;18.428;2023-05-16T18:42:12;125.38;;;87.18;;
33690;SDS011;20026;50.058;18.428;2023-05-16T18:44:41;96.28;;;65.20;;
33690;SDS011;20026;50.058;18.428;2023-05-16T18:47:07;146.25;;;90.55;;
33690;SDS011;20026;50.058;18.428;2023-05-16T18:49:33;433.75;;;241.60;;
33690;SDS011;20026;50.058;18.428;2023-05-16T18:52:07;150.98;;;102.28;;
33690;SDS011;20026;50.058;18.428;2023-05-16T18:54:34;107.32;;;75.43;;
33690;SDS011;20026;50.058;18.428;2023-05-16T18:57:00;96.22;;;65.70;;
33690;SDS011;20026;50.058;18.428;2023-05-16T18:59:30;86.97;;;58.90;;
33690;SDS011;20026;50.058;18.428;2023-05-16T19:01:57;95.40;;;67.07;;
33690;SDS011;20026;50.058;18.428;2023-05-16T19:04:23;82.57;;;59.75;;
33690;SDS011;20026;50.058;18.428;2023-05-16T19:06:50;71.75;;;53.38;;
33690;SDS011;20026;50.058;18.428;2023-05-16T19:09:21;152.38;;;80.15;;
33690;SDS011;20026;50.058;18.428;2023-05-16T19:11:47;270.08;;;121.95;;
33690;SDS011;20026;50.058;18.428;2023-05-16T19:14:14;197.85;;;101.97;;
33690;SDS011;20026;50.058;18.428;2023-05-16T19:16:40;160.57;;;93.38;;
33690;SDS011;20026;50.058;18.428;2023-05-16T19:19:06;106.18;;;74.60;;
33690;SDS011;20026;50.058;18.428;2023-05-16T19:21:34;72.32;;;55.97;;
33690;SDS011;20026;50.058;18.428;2023-05-16T19:24:00;58.25;;;46.20;;
33690;SDS011;20026;50.058;18.428;2023-05-16T19:26:27;56.15;;;44.50;;
33690;SDS011;20026;50.058;18.428;2023-05-16T19:28:54;57.13;;;42.10;;
33690;SDS011;20026;50.058;18.428;2023-05-16T19:31:21;143.85;;;79.60;;
33690;SDS011;20026;50.058;18.428;2023-05-16T19:34:06;108.70;;;62.42;;
33690;SDS011;20026;50.058;18.428;2023-05-16T19:36:32;72.78;;;50.85;;
33690;SDS011;20026;50.058;18.428;2023-05-16T19:38:58;79.57;;;56.13;;
33690;SDS011;20026;50.058;18.428;2023-05-16T19:41:25;86.40;;;58.92;;